sensor_id;sensor_type;location;lat;lon;timestamp;temperature;humidity
81220;DHT22;70690;52.494;13.410;2023-08-12T00:01:40;20.50;63.80
81220;DHT22;70690;52.494;13.410;2023-08-12T00:04:06;20.50;63.90
81220;DHT22;70690;52.494;13.410;2023-08-12T00:06:32;20.40;64.10
81220;DHT22;70690;52.494;13.410;2023-08-12T00:08:58;20.30;64.70
81220;DHT22;70690;52.494;13.410;2023-08-12T00:11:23;20.20;64.80
81220;DHT22;70690;52.494;13.410;2023-08-12T00:13:49;20.20;64.70
81220;DHT22;70690;52.494;13.410;2023-08-12T00:16:15;20.20;64.80
81220;DHT22;70690;52.494;13.410;2023-08-12T00:18:40;20.20;64.90
81220;DHT22;70690;52.494;13.410;2023-08-12T00:21:07;20.10;65.10
81220;DHT22;70690;52.494;13.410;2023-08-12T00:23:38;19.90;65.20
81220;DHT22;70690;52.494;13.410;2023-08-12T00:26:04;19.90;65.70
81220;DHT22;70690;52.494;13.410;2023-08-12T00:28:30;19.80;65.80
81220;DHT22;70690;52.494;13.410;2023-08-12T00:30:56;19.80;66.10
81220;DHT22;70690;52.494;13.410;2023-08-12T00:33:21;19.80;66.40
81220;DHT22;70690;52.494;13.410;2023-08-12T00:35:47;19.80;66.30
81220;DHT22;70690;52.494;13.410;2023-08-12T00:38:13;19.80;66.20
81220;DHT22;70690;52.494;13.410;2023-08-12T00:40:39;19.80;66.30
81220;DHT22;70690;52.494;13.410;2023-08-12T00:43:05;19.80;66.50
81220;DHT22;70690;52.494;13.410;2023-08-12T00:45:31;19.80;66.30
81220;DHT22;70690;52.494;13.410;2023-08-12T00:47:57;19.80;66.10
81220;DHT22;70690;52.494;13.410;2023-08-12T00:50:23;19.80;66.30
81220;DHT22;70690;52.494;13.410;2023-08-12T00:52:49;19.80;66.20
81220;DHT22;70690;52.494;13.410;2023-08-12T00:55:17;19.80;66.30
81220;DHT22;70690;52.494;13.410;2023-08-12T00:57:43;19.80;66.10
81220;DHT22;70690;52.494;13.410;2023-08-12T01:00:09;19.80;66.00
81220;DHT22;70690;52.494;13.410;2023-08-12T01:02:35;19.80;65.90
81220;DHT22;70690;52.494;13.410;2023-08-12T01:05:01;19.80;66.10
81220;DHT22;70690;52.494;13.410;2023-08-12T01:07:26;19.80;65.90
81220;DHT22;70690;52.494;13.410;2023-08-12T01:09:53;19.80;66.20
81220;DHT22;70690;52.494;13.410;2023-08-12T01:12:31;19.80;66.10
81220;DHT22;70690;52.494;13.410;2023-08-12T01:15:16;19.80;66.20
81220;DHT22;70690;52.494;13.410;2023-08-12T01:17:46;19.80;65.90
81220;DHT22;70690;52.494;13.410;2023-08-12T01:20:18;19.80;66.10
81220;DHT22;70690;52.494;13.410;2023-08-12T01:23:06;19.70;65.90
81220;DHT22;70690;52.494;13.410;2023-08-12T01:25:32;19.70;66.00
81220;DHT22;70690;52.494;13.410;2023-08-12T01:27:58;19.70;65.90
81220;DHT22;70690;52.494;13.410;2023-08-12T01:30:24;19.70;65.80
81220;DHT22;70690;52.494;13.410;2023-08-12T01:33:08;19.70;66.10
81220;DHT22;70690;52.494;13.410;2023-08-12T01:35:36;19.70;66.20
81220;DHT22;70690;52.494;13.410;2023-08-12T01:38:06;19.70;66.10
81220;DHT22;70690;52.494;13.410;2023-08-12T01:40:33;19.60;66.20
81220;DHT22;70690;52.494;13.410;2023-08-12T01:43:01;19.60;66.20
81220;DHT22;70690;52.494;13.410;2023-08-12T01:45:30;19.60;66.30
81220;DHT22;70690;52.494;13.410;2023-08-12T01:47:57;19.60;66.40
81220;DHT22;70690;52.494;13.410;2023-08-12T01:50:23;19.50;66.20
81220;DHT22;70690;52.494;13.410;2023-08-12T01:52:49;19.50;66.30
81220;DHT22;70690;52.494;13.410;2023-08-12T01:55:15;19.50;66.30
81220;DHT22;70690;52.494;13.410;2023-08-12T01:57:41;19.50;66.40
81220;DHT22;70690;52.494;13.410;2023-08-12T02:00:07;19.50;66.70
81220;DHT22;70690;52.494;13.410;2023-08-12T02:02:33;19.50;66.60
81220;DHT22;70690;52.494;13.410;2023-08-12T02:04:59;19.50;66.50
81220;DHT22;70690;52.494;13.410;2023-08-12T02:07:25;19.40;66.50
81220;DHT22;70690;52.494;13.410;2023-08-12T02:09:51;19.50;66.40
81220;DHT22;70690;52.494;13.410;2023-08-12T02:12:17;19.50;66.50
81220;DHT22;70690;52.494;13.410;2023-08-12T02:14:42;19.50;66.40
81220;DHT22;70690;52.494;13.410;2023-08-12T02:17:08;19.50;66.40
81220;DHT22;70690;52.494;13.410;2023-08-12T02:19:34;19.50;66.10
81220;DHT22;70690;52.494;13.410;2023-08-12T02:22:01;19.50;66.00
81220;DHT22;70690;52.494;13.410;2023-08-12T02:24:29;19.50;66.30
81220;DHT22;70690;52.494;13.410;2023-08-12T02:26:55;19.60;66.00
81220;DHT22;70690;52.494;13.410;2023-08-12T02:29:21;19.60;66.00
81220;DHT22;70690;52.494;13.410;2023-08-12T02:31:46;19.60;65.80
81220;DHT22;70690;52.494;13.410;2023-08-12T02:34:12;19.60;65.90
81220;DHT22;70690;52.494;13.410;2023-08-12T02:36:38;19.60;65.80
81220;DHT22;70690;52.494;13.410;2023-08-12T02:39:04;19.60;65.50
81220;DHT22;70690;52.494;13.410;2023-08-12T02:41:30;19.60;65.40
81220;DHT22;70690;52.494;13.410;2023-08-12T02:43:56;19.60;65.30
81220;DHT22;70690;52.494;13.410;2023-08-12T02:46:22;19.60;65.40
81220;DHT22;70690;52.494;13.410;2023-08-12T02:48:48;19.60;65.20
81220;DHT22;70690;52.494;13.410;2023-08-12T02:51:14;19.60;65.00
81220;DHT22;70690;52.494;13.410;2023-08-12T02:53:40;19.60;65.10
81220;DHT22;70690;52.494;13.410;2023-08-12T02:56:06;19.60;65.20
81220;DHT22;70690;52.494;13.410;2023-08-12T02:58:31;19.60;65.20
81220;DHT22;70690;52.494;13.410;2023-08-12T03:00:57;19.60;65.20
81220;DHT22;70690;52.494;13.410;2023-08-12T03:03:23;19.60;65.20
81220;DHT22;70690;52.494;13.410;2023-08-12T03:05:49;19.60;65.20
81220;DHT22;70690;52.494;13.410;2023-08-12T03:08:15;19.60;65.20
81220;DHT22;70690;52.494;13.410;2023-08-12T03:10:41;19.70;65.20
81220;DHT22;70690;52.494;13.410;2023-08-12T03:13:07;19.60;65.10
81220;DHT22;70690;52.494;13.410;2023-08-12T03:15:33;19.60;65.20
81220;DHT22;70690;52.494;13.410;2023-08-12T03:17:59;19.60;65.30
81220;DHT22;70690;52.494;13.410;2023-08-12T03:20:25;19.60;65.30
81220;DHT22;70690;52.494;13.410;2023-08-12T03:22:50;19.60;65.40
81220;DHT22;70690;52.494;13.410;2023-08-12T03:25:16;19.50;65.40
81220;DHT22;70690;52.494;13.410;2023-08-12T03:27:42;19.50;65.50
81220;DHT22;70690;52.494;13.410;2023-08-12T03:30:08;19.40;65.50
81220;DHT22;70690;52.494;13.410;2023-08-12T03:32:35;19.50;65.90
81220;DHT22;70690;52.494;13.410;2023-08-12T03:35:00;19.40;65.60
81220;DHT22;70690;52.494;13.410;2023-08-12T03:37:26;19.40;65.80
81220;DHT22;70690;52.494;13.410;2023-08-12T03:39:52;19.40;65.90
81220;DHT22;70690;52.494;13.410;2023-08-12T03:42:21;19.40;65.90
81220;DHT22;70690;52.494;13.410;2023-08-12T03:44:46;19.40;65.90
81220;DHT22;70690;52.494;13.410;2023-08-12T03:47:12;19.30;65.80
81220;DHT22;70690;52.494;13.410;2023-08-12T03:49:38;19.30;65.70
81220;DHT22;70690;52.494;13.410;2023-08-12T03:52:04;19.30;65.80
81220;DHT22;70690;52.494;13.410;2023-08-12T03:54:32;19.40;65.70
81220;DHT22;70690;52.494;13.410;2023-08-12T03:56:58;19.30;65.70
81220;DHT22;70690;52.494;13.410;2023-08-12T03:59:24;19.20;65.90
81220;DHT22;70690;52.494;13.410;2023-08-12T04:01:49;19.20;65.90
81220;DHT22;70690;52.494;13.410;2023-08-12T04:04:15;19.20;65.80
81220;DHT22;70690;52.494;13.410;2023-08-12T04:06:41;19.20;66.20
81220;DHT22;70690;52.494;13.410;2023-08-12T04:09:07;19.20;66.20
81220;DHT22;70690;52.494;13.410;2023-08-12T04:11:33;19.20;66.20
81220;DHT22;70690;52.494;13.410;2023-08-12T04:13:59;19.20;66.10
81220;DHT22;70690;52.494;13.410;2023-08-12T04:16:24;19.20;66.10
81220;DHT22;70690;52.494;13.410;2023-08-12T04:18:50;19.20;66.10
81220;DHT22;70690;52.494;13.410;2023-08-12T04:21:16;19.20;65.90
81220;DHT22;70690;52.494;13.410;2023-08-12T04:23:42;19.20;65.90
81220;DHT22;70690;52.494;13.410;2023-08-12T04:26:07;19.20;65.90
81220;DHT22;70690;52.494;13.410;2023-08-12T04:28:33;19.20;65.90
81220;DHT22;70690;52.494;13.410;2023-08-12T04:30:59;19.20;65.90
81220;DHT22;70690;52.494;13.410;2023-08-12T04:33:25;19.30;65.80
81220;DHT22;70690;52.494;13.410;2023-08-12T04:35:52;19.20;65.70
81220;DHT22;70690;52.494;13.410;2023-08-12T04:38:18;19.30;65.80
81220;DHT22;70690;52.494;13.410;2023-08-12T04:40:43;19.30;65.80
81220;DHT22;70690;52.494;13.410;2023-08-12T04:43:09;19.40;65.70
81220;DHT22;70690;52.494;13.410;2023-08-12T04:45:35;19.40;65.60
81220;DHT22;70690;52.494;13.410;2023-08-12T04:48:01;19.40;65.40
81220;DHT22;70690;52.494;13.410;2023-08-12T04:50:31;19.40;65.20
81220;DHT22;70690;52.494;13.410;2023-08-12T04:52:59;19.60;65.20
81220;DHT22;70690;52.494;13.410;2023-08-12T04:55:25;19.50;65.00
81220;DHT22;70690;52.494;13.410;2023-08-12T04:57:51;19.50;64.80
81220;DHT22;70690;52.494;13.410;2023-08-12T05:00:17;19.60;64.70
81220;DHT22;70690;52.494;13.410;2023-08-12T05:02:43;19.70;64.40
81220;DHT22;70690;52.494;13.410;2023-08-12T05:05:09;19.80;64.10
81220;DHT22;70690;52.494;13.410;2023-08-12T05:07:34;19.80;63.80
81220;DHT22;70690;52.494;13.410;2023-08-12T05:10:01;19.80;63.40
81220;DHT22;70690;52.494;13.410;2023-08-12T05:12:26;20.00;63.20
81220;DHT22;70690;52.494;13.410;2023-08-12T05:14:52;20.10;62.70
81220;DHT22;70690;52.494;13.410;2023-08-12T05:17:18;20.20;62.30
81220;DHT22;70690;52.494;13.410;2023-08-12T05:19:44;20.30;62.30
81220;DHT22;70690;52.494;13.410;2023-08-12T05:22:10;20.40;61.90
81220;DHT22;70690;52.494;13.410;2023-08-12T05:24:35;20.60;61.50
81220;DHT22;70690;52.494;13.410;2023-08-12T05:27:01;20.70;60.90
81220;DHT22;70690;52.494;13.410;2023-08-12T05:29:27;20.90;60.50
81220;DHT22;70690;52.494;13.410;2023-08-12T05:31:53;21.10;60.20
81220;DHT22;70690;52.494;13.410;2023-08-12T05:34:19;21.20;59.70
81220;DHT22;70690;52.494;13.410;2023-08-12T05:36:44;21.20;59.10
81220;DHT22;70690;52.494;13.410;2023-08-12T05:39:10;21.40;58.80
81220;DHT22;70690;52.494;13.410;2023-08-12T05:41:36;21.40;58.70
81220;DHT22;70690;52.494;13.410;2023-08-12T05:44:02;21.50;58.60
81220;DHT22;70690;52.494;13.410;2023-08-12T05:46:28;21.50;58.70
81220;DHT22;70690;52.494;13.410;2023-08-12T05:48:54;21.60;58.20
81220;DHT22;70690;52.494;13.410;2023-08-12T05:51:20;21.70;58.30
81220;DHT22;70690;52.494;13.410;2023-08-12T05:53:45;21.80;58.20
81220;DHT22;70690;52.494;13.410;2023-08-12T05:56:11;21.80;57.80
81220;DHT22;70690;52.494;13.410;2023-08-12T05:58:37;21.90;57.90
81220;DHT22;70690;52.494;13.410;2023-08-12T06:01:03;22.00;57.60
81220;DHT22;70690;52.494;13.410;2023-08-12T06:03:28;22.10;57.40
81220;DHT22;70690;52.494;13.410;2023-08-12T06:05:54;22.20;56.90
81220;DHT22;70690;52.494;13.410;2023-08-12T06:08:20;22.20;56.80
81220;DHT22;70690;52.494;13.410;2023-08-12T06:10:46;22.20;56.70
81220;DHT22;70690;52.494;13.410;2023-08-12T06:13:11;22.30;56.80
81220;DHT22;70690;52.494;13.410;2023-08-12T06:15:37;22.40;57.00
81220;DHT22;70690;52.494;13.410;2023-08-12T06:18:03;22.50;56.60
81220;DHT22;70690;52.494;13.410;2023-08-12T06:20:29;22.50;56.30
81220;DHT22;70690;52.494;13.410;2023-08-12T06:22:55;22.60;56.40
81220;DHT22;70690;52.494;13.410;2023-08-12T06:25:21;22.70;56.30
81220;DHT22;70690;52.494;13.410;2023-08-12T06:27:47;22.80;56.20
81220;DHT22;70690;52.494;13.410;2023-08-12T06:30:13;22.90;55.80
81220;DHT22;70690;52.494;13.410;2023-08-12T06:32:40;22.90;55.90
81220;DHT22;70690;52.494;13.410;2023-08-12T06:35:06;23.00;55.90
81220;DHT22;70690;52.494;13.410;2023-08-12T06:37:32;23.10;55.40
81220;DHT22;70690;52.494;13.410;2023-08-12T06:39:58;23.20;55.00
81220;DHT22;70690;52.494;13.410;2023-08-12T06:42:23;23.10;55.10
81220;DHT22;70690;52.494;13.410;2023-08-12T06:44:59;23.20;55.20
81220;DHT22;70690;52.494;13.410;2023-08-12T06:47:26;23.30;55.00
81220;DHT22;70690;52.494;13.410;2023-08-12T06:49:53;23.30;55.00
81220;DHT22;70690;52.494;13.410;2023-08-12T06:52:19;23.30;54.90
81220;DHT22;70690;52.494;13.410;2023-08-12T06:54:44;23.30;55.10
81220;DHT22;70690;52.494;13.410;2023-08-12T06:57:10;23.30;55.00
81220;DHT22;70690;52.494;13.410;2023-08-12T06:59:37;23.30;54.60
81220;DHT22;70690;52.494;13.410;2023-08-12T07:02:03;23.30;54.60
81220;DHT22;70690;52.494;13.410;2023-08-12T07:04:29;23.40;54.70
81220;DHT22;70690;52.494;13.410;2023-08-12T07:06:55;23.40;54.60
81220;DHT22;70690;52.494;13.410;2023-08-12T07:09:21;23.50;54.60
81220;DHT22;70690;52.494;13.410;2023-08-12T07:11:47;23.60;54.00
81220;DHT22;70690;52.494;13.410;2023-08-12T07:14:12;23.60;54.60
81220;DHT22;70690;52.494;13.410;2023-08-12T07:16:38;23.60;54.70
81220;DHT22;70690;52.494;13.410;2023-08-12T07:19:04;23.60;54.40
81220;DHT22;70690;52.494;13.410;2023-08-12T07:21:30;23.50;54.60
81220;DHT22;70690;52.494;13.410;2023-08-12T07:23:55;23.60;54.60
81220;DHT22;70690;52.494;13.410;2023-08-12T07:26:21;23.70;53.90
81220;DHT22;70690;52.494;13.410;2023-08-12T07:28:47;23.80;54.20
81220;DHT22;70690;52.494;13.410;2023-08-12T07:31:13;24.00;54.10
81220;DHT22;70690;52.494;13.410;2023-08-12T07:33:39;24.20;53.00
81220;DHT22;70690;52.494;13.410;2023-08-12T07:36:05;24.40;52.80
81220;DHT22;70690;52.494;13.410;2023-08-12T07:38:31;24.40;53.00
81220;DHT22;70690;52.494;13.410;2023-08-12T07:40:57;24.60;52.60
81220;DHT22;70690;52.494;13.410;2023-08-12T07:43:23;24.70;52.70
81220;DHT22;70690;52.494;13.410;2023-08-12T07:45:52;24.80;52.10
81220;DHT22;70690;52.494;13.410;2023-08-12T07:48:19;25.00;51.80
81220;DHT22;70690;52.494;13.410;2023-08-12T07:50:45;25.10;51.40
81220;DHT22;70690;52.494;13.410;2023-08-12T07:53:10;25.30;51.20
81220;DHT22;70690;52.494;13.410;2023-08-12T07:55:36;25.40;50.90
81220;DHT22;70690;52.494;13.410;2023-08-12T07:58:02;25.50;50.70
81220;DHT22;70690;52.494;13.410;2023-08-12T08:00:29;25.80;50.50
81220;DHT22;70690;52.494;13.410;2023-08-12T08:02:55;25.70;49.80
81220;DHT22;70690;52.494;13.410;2023-08-12T08:05:21;25.70;49.90
81220;DHT22;70690;52.494;13.410;2023-08-12T08:07:47;25.80;50.00
81220;DHT22;70690;52.494;13.410;2023-08-12T08:10:13;25.80;50.00
81220;DHT22;70690;52.494;13.410;2023-08-12T08:12:39;26.00;49.70
81220;DHT22;70690;52.494;13.410;2023-08-12T08:15:05;26.00;49.60
81220;DHT22;70690;52.494;13.410;2023-08-12T08:17:31;26.10;49.90
81220;DHT22;70690;52.494;13.410;2023-08-12T08:19:57;26.10;49.70
81220;DHT22;70690;52.494;13.410;2023-08-12T08:22:23;26.20;49.20
81220;DHT22;70690;52.494;13.410;2023-08-12T08:24:48;26.10;49.00
81220;DHT22;70690;52.494;13.410;2023-08-12T08:27:14;26.10;49.50
81220;DHT22;70690;52.494;13.410;2023-08-12T08:29:40;26.10;50.20
81220;DHT22;70690;52.494;13.410;2023-08-12T08:32:06;26.00;49.80
81220;DHT22;70690;52.494;13.410;2023-08-12T08:34:32;26.00;50.10
81220;DHT22;70690;52.494;13.410;2023-08-12T08:36:57;25.80;50.20
81220;DHT22;70690;52.494;13.410;2023-08-12T08:39:23;25.70;50.80
81220;DHT22;70690;52.494;13.410;2023-08-12T08:41:49;25.60;51.40
81220;DHT22;70690;52.494;13.410;2023-08-12T08:44:15;25.50;51.50
81220;DHT22;70690;52.494;13.410;2023-08-12T08:46:43;25.50;51.80
81220;DHT22;70690;52.494;13.410;2023-08-12T08:49:09;25.50;52.20
81220;DHT22;70690;52.494;13.410;2023-08-12T08:51:36;25.40;52.40
81220;DHT22;70690;52.494;13.410;2023-08-12T08:54:03;25.40;52.40
81220;DHT22;70690;52.494;13.410;2023-08-12T08:56:31;25.40;52.50
81220;DHT22;70690;52.494;13.410;2023-08-12T08:58:58;25.40;52.60
81220;DHT22;70690;52.494;13.410;2023-08-12T09:01:24;25.50;52.50
81220;DHT22;70690;52.494;13.410;2023-08-12T09:03:53;25.60;53.30
81220;DHT22;70690;52.494;13.410;2023-08-12T09:06:20;25.60;53.10
81220;DHT22;70690;52.494;13.410;2023-08-12T09:08:47;25.70;53.00
81220;DHT22;70690;52.494;13.410;2023-08-12T09:11:14;25.80;53.50
81220;DHT22;70690;52.494;13.410;2023-08-12T09:13:41;26.00;53.50
81220;DHT22;70690;52.494;13.410;2023-08-12T09:16:07;26.10;53.50
81220;DHT22;70690;52.494;13.410;2023-08-12T09:18:33;26.10;53.10
81220;DHT22;70690;52.494;13.410;2023-08-12T09:21:00;26.10;52.80
81220;DHT22;70690;52.494;13.410;2023-08-12T09:23:26;26.10;52.50
81220;DHT22;70690;52.494;13.410;2023-08-12T09:25:53;26.20;52.20
81220;DHT22;70690;52.494;13.410;2023-08-12T09:28:19;26.40;52.50
81220;DHT22;70690;52.494;13.410;2023-08-12T09:30:54;26.50;52.60
81220;DHT22;70690;52.494;13.410;2023-08-12T09:33:25;26.80;52.30
81220;DHT22;70690;52.494;13.410;2023-08-12T09:35:52;26.80;51.00
81220;DHT22;70690;52.494;13.410;2023-08-12T09:38:19;27.10;50.90
81220;DHT22;70690;52.494;13.410;2023-08-12T09:40:46;27.20;49.80
81220;DHT22;70690;52.494;13.410;2023-08-12T09:43:13;27.40;49.80
81220;DHT22;70690;52.494;13.410;2023-08-12T09:45:39;27.40;49.00
81220;DHT22;70690;52.494;13.410;2023-08-12T09:48:05;27.30;48.80
81220;DHT22;70690;52.494;13.410;2023-08-12T09:50:34;27.20;48.60
81220;DHT22;70690;52.494;13.410;2023-08-12T09:53:02;27.20;49.80
81220;DHT22;70690;52.494;13.410;2023-08-12T09:55:29;27.20;49.60
81220;DHT22;70690;52.494;13.410;2023-08-12T09:57:59;27.30;49.60
81220;DHT22;70690;52.494;13.410;2023-08-12T10:00:25;27.50;49.70
81220;DHT22;70690;52.494;13.410;2023-08-12T10:02:52;27.70;49.60
81220;DHT22;70690;52.494;13.410;2023-08-12T10:05:27;27.90;49.10
81220;DHT22;70690;52.494;13.410;2023-08-12T10:07:54;28.00;47.60
81220;DHT22;70690;52.494;13.410;2023-08-12T10:10:21;28.10;48.20
81220;DHT22;70690;52.494;13.410;2023-08-12T10:12:51;28.10;48.30
81220;DHT22;70690;52.494;13.410;2023-08-12T10:15:17;28.00;48.60
81220;DHT22;70690;52.494;13.410;2023-08-12T10:17:44;27.90;48.70
81220;DHT22;70690;52.494;13.410;2023-08-12T10:20:21;27.90;48.50
81220;DHT22;70690;52.494;13.410;2023-08-12T10:22:51;28.00;48.40
81220;DHT22;70690;52.494;13.410;2023-08-12T10:25:19;28.00;48.60
81220;DHT22;70690;52.494;13.410;2023-08-12T10:27:47;28.10;49.20
81220;DHT22;70690;52.494;13.410;2023-08-12T10:30:13;28.10;48.70
81220;DHT22;70690;52.494;13.410;2023-08-12T10:32:39;28.30;48.70
81220;DHT22;70690;52.494;13.410;2023-08-12T10:35:06;28.40;48.50
81220;DHT22;70690;52.494;13.410;2023-08-12T10:37:33;28.50;48.30
81220;DHT22;70690;52.494;13.410;2023-08-12T10:40:03;28.60;48.10
81220;DHT22;70690;52.494;13.410;2023-08-12T10:42:43;28.60;48.00
81220;DHT22;70690;52.494;13.410;2023-08-12T10:45:14;28.70;47.80
81220;DHT22;70690;52.494;13.410;2023-08-12T10:50:32;28.90;47.90
81220;DHT22;70690;52.494;13.410;2023-08-12T10:52:58;28.90;47.90
81220;DHT22;70690;52.494;13.410;2023-08-12T10:55:25;29.10;47.70
81220;DHT22;70690;52.494;13.410;2023-08-12T10:57:53;29.00;47.00
81220;DHT22;70690;52.494;13.410;2023-08-12T11:00:23;29.20;47.50
81220;DHT22;70690;52.494;13.410;2023-08-12T11:02:53;29.20;47.40
81220;DHT22;70690;52.494;13.410;2023-08-12T11:05:19;29.10;47.60
81220;DHT22;70690;52.494;13.410;2023-08-12T11:07:49;29.20;48.50
81220;DHT22;70690;52.494;13.410;2023-08-12T11:10:25;29.20;48.20
81220;DHT22;70690;52.494;13.410;2023-08-12T11:15:18;29.10;48.20
81220;DHT22;70690;52.494;13.410;2023-08-12T11:17:46;29.10;47.90
81220;DHT22;70690;52.494;13.410;2023-08-12T11:20:13;29.10;48.80
81220;DHT22;70690;52.494;13.410;2023-08-12T11:22:40;29.10;48.40
81220;DHT22;70690;52.494;13.410;2023-08-12T11:25:11;29.10;48.80
81220;DHT22;70690;52.494;13.410;2023-08-12T11:27:45;29.10;48.40
81220;DHT22;70690;52.494;13.410;2023-08-12T11:30:13;29.10;48.20
81220;DHT22;70690;52.494;13.410;2023-08-12T11:32:48;29.00;47.50
81220;DHT22;70690;52.494;13.410;2023-08-12T11:35:15;28.80;47.90
81220;DHT22;70690;52.494;13.410;2023-08-12T11:37:44;28.70;48.00
81220;DHT22;70690;52.494;13.410;2023-08-12T11:40:11;28.60;47.70
81220;DHT22;70690;52.494;13.410;2023-08-12T11:42:41;28.50;48.00
81220;DHT22;70690;52.494;13.410;2023-08-12T11:45:08;28.20;48.70
81220;DHT22;70690;52.494;13.410;2023-08-12T11:47:35;28.20;49.00
81220;DHT22;70690;52.494;13.410;2023-08-12T11:50:09;27.90;48.90
81220;DHT22;70690;52.494;13.410;2023-08-12T11:52:36;27.90;49.00
81220;DHT22;70690;52.494;13.410;2023-08-12T11:55:02;27.80;49.00
81220;DHT22;70690;52.494;13.410;2023-08-12T11:57:29;27.40;50.00
81220;DHT22;70690;52.494;13.410;2023-08-12T11:59:59;27.50;50.30
81220;DHT22;70690;52.494;13.410;2023-08-12T12:02:29;27.40;50.70
81220;DHT22;70690;52.494;13.410;2023-08-12T12:04:55;27.50;50.70
81220;DHT22;70690;52.494;13.410;2023-08-12T12:07:24;27.50;51.10
81220;DHT22;70690;52.494;13.410;2023-08-12T12:09:54;27.70;51.30
81220;DHT22;70690;52.494;13.410;2023-08-12T12:12:23;27.60;51.10
81220;DHT22;70690;52.494;13.410;2023-08-12T12:14:52;27.60;50.50
81220;DHT22;70690;52.494;13.410;2023-08-12T12:17:24;27.70;50.10
81220;DHT22;70690;52.494;13.410;2023-08-12T12:19:55;27.30;51.00
81220;DHT22;70690;52.494;13.410;2023-08-12T12:22:29;27.00;52.00
81220;DHT22;70690;52.494;13.410;2023-08-12T12:24:58;27.00;52.30
81220;DHT22;70690;52.494;13.410;2023-08-12T12:27:24;26.70;52.70
81220;DHT22;70690;52.494;13.410;2023-08-12T12:29:50;26.60;53.20
81220;DHT22;70690;52.494;13.410;2023-08-12T12:32:20;26.40;53.90
81220;DHT22;70690;52.494;13.410;2023-08-12T12:34:46;26.30;53.50
81220;DHT22;70690;52.494;13.410;2023-08-12T12:37:12;26.20;54.00
81220;DHT22;70690;52.494;13.410;2023-08-12T12:39:39;26.20;54.50
81220;DHT22;70690;52.494;13.410;2023-08-12T12:42:05;26.30;54.60
81220;DHT22;70690;52.494;13.410;2023-08-12T12:44:31;26.40;54.20
81220;DHT22;70690;52.494;13.410;2023-08-12T12:46:57;26.60;54.00
81220;DHT22;70690;52.494;13.410;2023-08-12T12:49:23;26.80;53.60
81220;DHT22;70690;52.494;13.410;2023-08-12T12:51:49;27.00;53.20
81220;DHT22;70690;52.494;13.410;2023-08-12T12:54:15;27.40;52.10
81220;DHT22;70690;52.494;13.410;2023-08-12T12:56:41;27.80;51.40
81220;DHT22;70690;52.494;13.410;2023-08-12T12:59:07;28.20;50.10
81220;DHT22;70690;52.494;13.410;2023-08-12T13:01:33;28.60;49.40
81220;DHT22;70690;52.494;13.410;2023-08-12T13:03:59;28.80;48.60
81220;DHT22;70690;52.494;13.410;2023-08-12T13:06:25;29.10;48.60
81220;DHT22;70690;52.494;13.410;2023-08-12T13:08:50;29.20;48.40
81220;DHT22;70690;52.494;13.410;2023-08-12T13:11:17;29.20;48.00
81220;DHT22;70690;52.494;13.410;2023-08-12T13:13:42;29.30;48.10
81220;DHT22;70690;52.494;13.410;2023-08-12T13:16:08;29.50;48.40
81220;DHT22;70690;52.494;13.410;2023-08-12T13:18:34;29.80;47.90
81220;DHT22;70690;52.494;13.410;2023-08-12T13:21:00;30.10;47.10
81220;DHT22;70690;52.494;13.410;2023-08-12T13:23:26;30.20;46.20
81220;DHT22;70690;52.494;13.410;2023-08-12T13:25:52;30.40;46.20
81220;DHT22;70690;52.494;13.410;2023-08-12T13:28:19;30.90;45.70
81220;DHT22;70690;52.494;13.410;2023-08-12T13:30:45;31.10;45.30
81220;DHT22;70690;52.494;13.410;2023-08-12T13:33:16;31.30;45.10
81220;DHT22;70690;52.494;13.410;2023-08-12T13:35:42;31.40;44.00
81220;DHT22;70690;52.494;13.410;2023-08-12T13:38:08;31.40;43.10
81220;DHT22;70690;52.494;13.410;2023-08-12T13:40:34;31.30;43.40
81220;DHT22;70690;52.494;13.410;2023-08-12T13:42:59;31.30;43.80
81220;DHT22;70690;52.494;13.410;2023-08-12T13:45:25;31.40;43.00
81220;DHT22;70690;52.494;13.410;2023-08-12T13:47:52;31.50;43.40
81220;DHT22;70690;52.494;13.410;2023-08-12T13:50:17;31.60;42.90
81220;DHT22;70690;52.494;13.410;2023-08-12T13:52:45;31.80;42.60
81220;DHT22;70690;52.494;13.410;2023-08-12T13:55:12;31.90;43.60
81220;DHT22;70690;52.494;13.410;2023-08-12T13:57:38;31.90;42.50
81220;DHT22;70690;52.494;13.410;2023-08-12T14:00:04;31.80;41.50
81220;DHT22;70690;52.494;13.410;2023-08-12T14:02:36;31.90;42.30
81220;DHT22;70690;52.494;13.410;2023-08-12T14:05:02;31.90;41.00
81220;DHT22;70690;52.494;13.410;2023-08-12T14:07:29;32.00;40.80
81220;DHT22;70690;52.494;13.410;2023-08-12T14:09:56;32.00;40.80
81220;DHT22;70690;52.494;13.410;2023-08-12T14:12:21;32.20;41.00
81220;DHT22;70690;52.494;13.410;2023-08-12T14:14:47;32.20;41.50
81220;DHT22;70690;52.494;13.410;2023-08-12T14:17:14;32.20;41.20
81220;DHT22;70690;52.494;13.410;2023-08-12T14:19:44;32.00;40.40
81220;DHT22;70690;52.494;13.410;2023-08-12T14:22:10;31.90;41.50
81220;DHT22;70690;52.494;13.410;2023-08-12T14:24:35;31.90;41.30
81220;DHT22;70690;52.494;13.410;2023-08-12T14:27:01;31.70;41.40
81220;DHT22;70690;52.494;13.410;2023-08-12T14:29:27;31.90;41.00
81220;DHT22;70690;52.494;13.410;2023-08-12T14:31:53;32.00;40.90
81220;DHT22;70690;52.494;13.410;2023-08-12T14:34:18;32.00;40.90
81220;DHT22;70690;52.494;13.410;2023-08-12T14:36:44;32.10;41.20
81220;DHT22;70690;52.494;13.410;2023-08-12T14:39:10;32.30;39.80
81220;DHT22;70690;52.494;13.410;2023-08-12T14:41:35;32.40;39.90
81220;DHT22;70690;52.494;13.410;2023-08-12T14:44:01;32.60;39.60
81220;DHT22;70690;52.494;13.410;2023-08-12T14:46:27;32.40;39.90
81220;DHT22;70690;52.494;13.410;2023-08-12T14:48:53;32.60;40.60
81220;DHT22;70690;52.494;13.410;2023-08-12T14:51:19;32.80;40.60
81220;DHT22;70690;52.494;13.410;2023-08-12T14:53:45;33.10;39.40
81220;DHT22;70690;52.494;13.410;2023-08-12T14:56:13;33.10;38.10
81220;DHT22;70690;52.494;13.410;2023-08-12T14:58:39;32.90;39.10
81220;DHT22;70690;52.494;13.410;2023-08-12T15:01:06;33.00;38.80
81220;DHT22;70690;52.494;13.410;2023-08-12T15:03:32;33.00;38.40
81220;DHT22;70690;52.494;13.410;2023-08-12T15:06:00;33.20;39.40
81220;DHT22;70690;52.494;13.410;2023-08-12T15:08:27;34.20;38.00
81220;DHT22;70690;52.494;13.410;2023-08-12T15:10:52;35.40;35.90
81220;DHT22;70690;52.494;13.410;2023-08-12T15:13:18;35.70;35.50
81220;DHT22;70690;52.494;13.410;2023-08-12T15:15:48;35.10;35.60
81220;DHT22;70690;52.494;13.410;2023-08-12T15:18:14;34.60;36.10